createdAt,value
2018-07-16T00:00:29.037Z,17.20
2018-07-16T00:02:57.509Z,17.20
2018-07-16T00:05:25.834Z,17.20
2018-07-16T00:07:54.291Z,17.20
2018-07-16T00:10:22.705Z,17.20
2018-07-16T00:12:51.108Z,17.20
2018-07-16T00:15:19.446Z,17.30
2018-07-16T00:17:47.939Z,17.20
2018-07-16T00:20:16.360Z,17.20
2018-07-16T00:22:44.780Z,17.20
2018-07-16T00:25:13.115Z,17.10
2018-07-16T00:27:41.498Z,17.10
2018-07-16T00:30:09.855Z,17.00
2018-07-16T00:32:38.196Z,17.00
2018-07-16T00:35:06.553Z,17.00
2018-07-16T00:37:34.930Z,17.10
2018-07-16T00:40:03.290Z,17.00
2018-07-16T00:42:31.707Z,17.00
2018-07-16T00:45:00.113Z,17.00
2018-07-16T00:47:28.491Z,17.00
2018-07-16T00:49:56.915Z,17.10
2018-07-16T00:52:25.294Z,17.10
2018-07-16T00:54:53.630Z,17.00
2018-07-16T00:57:21.999Z,17.10
2018-07-16T00:59:50.384Z,17.00
2018-07-16T01:02:18.755Z,17.10
2018-07-16T01:04:47.160Z,17.20
2018-07-16T01:07:15.502Z,17.20
2018-07-16T01:09:43.882Z,17.00
2018-07-16T01:12:12.256Z,16.90
2018-07-16T01:14:40.594Z,17.00
2018-07-16T01:17:08.964Z,17.10
2018-07-16T01:19:37.399Z,17.10
2018-07-16T01:22:05.740Z,17.10
2018-07-16T01:24:34.173Z,17.00
2018-07-16T01:27:02.506Z,16.90
2018-07-16T01:29:30.931Z,17.00
2018-07-16T01:31:59.271Z,17.00
2018-07-16T01:34:27.560Z,17.00
2018-07-16T01:36:56.013Z,17.00
2018-07-16T01:39:24.305Z,16.90
2018-07-16T01:41:52.663Z,16.90
2018-07-16T01:44:21.002Z,16.90
2018-07-16T01:46:49.392Z,16.80
2018-07-16T01:49:17.789Z,16.90
2018-07-16T01:51:46.211Z,16.80
2018-07-16T01:54:14.524Z,16.90
2018-07-16T01:56:42.895Z,16.90
2018-07-16T01:59:11.243Z,17.00
2018-07-16T02:01:39.666Z,17.00
2018-07-16T02:04:08.055Z,16.90
2018-07-16T02:06:36.517Z,16.90
2018-07-16T02:09:04.942Z,17.00
2018-07-16T02:11:33.358Z,17.00
2018-07-16T02:14:01.718Z,17.00
2018-07-16T02:16:30.096Z,17.00
2018-07-16T02:18:58.478Z,17.00
2018-07-16T02:21:26.861Z,16.90
2018-07-16T02:23:55.235Z,16.80
2018-07-16T02:26:23.639Z,16.80
2018-07-16T02:28:52.058Z,16.70
2018-07-16T02:31:20.379Z,16.80
2018-07-16T02:33:48.784Z,16.70
2018-07-16T02:36:17.125Z,16.80
2018-07-16T02:38:45.507Z,16.80
2018-07-16T02:41:13.817Z,16.80
2018-07-16T02:43:42.204Z,16.90
2018-07-16T02:46:10.579Z,16.90
2018-07-16T02:48:38.946Z,16.80
2018-07-16T02:51:07.356Z,16.80
2018-07-16T02:53:35.678Z,16.80
2018-07-16T02:56:04.056Z,16.70
2018-07-16T02:58:32.415Z,16.70
2018-07-16T03:01:00.997Z,16.60
2018-07-16T03:03:29.377Z,16.60
2018-07-16T03:05:57.799Z,16.70
2018-07-16T03:08:26.927Z,16.60
2018-07-16T03:10:55.303Z,16.60
2018-07-16T03:13:23.700Z,16.60
2018-07-16T03:15:52.126Z,16.50
2018-07-16T03:18:20.534Z,16.50
2018-07-16T03:20:48.885Z,16.40
2018-07-16T03:23:17.274Z,16.50
2018-07-16T03:25:45.647Z,16.50
2018-07-16T03:28:13.926Z,16.50
2018-07-16T03:30:42.269Z,16.50
2018-07-16T03:33:10.669Z,16.50
2018-07-16T03:35:39.019Z,16.50
2018-07-16T03:38:07.339Z,16.50
2018-07-16T03:40:35.741Z,16.40
2018-07-16T03:43:04.176Z,16.30
2018-07-16T03:45:32.556Z,16.50
2018-07-16T03:48:00.901Z,16.60
2018-07-16T03:50:29.273Z,16.60
2018-07-16T03:52:57.741Z,16.60
2018-07-16T03:55:26.120Z,16.60
2018-07-16T03:57:54.410Z,16.70
2018-07-16T04:00:22.815Z,16.70
2018-07-16T04:02:51.131Z,16.70
2018-07-16T04:05:19.453Z,16.80
2018-07-16T04:07:47.778Z,16.90
2018-07-16T04:10:16.199Z,16.90
2018-07-16T04:12:44.469Z,16.90
2018-07-16T04:15:12.777Z,17.00
2018-07-16T04:17:41.163Z,17.00
2018-07-16T04:20:10.304Z,17.00
2018-07-16T04:22:38.720Z,17.10
2018-07-16T04:25:07.192Z,17.10
2018-07-16T04:27:35.765Z,17.20
2018-07-16T04:30:04.167Z,17.50
2018-07-16T04:32:32.575Z,17.60
2018-07-16T04:35:00.939Z,17.70
2018-07-16T04:37:29.336Z,17.70
2018-07-16T04:39:57.836Z,17.60
2018-07-16T04:42:26.237Z,17.60
2018-07-16T04:44:54.631Z,17.60
2018-07-16T04:47:23.483Z,17.70
2018-07-16T04:49:51.887Z,17.60
2018-07-16T04:52:20.888Z,17.70
2018-07-16T04:54:49.258Z,17.50
2018-07-16T04:57:17.667Z,17.30
2018-07-16T04:59:45.992Z,17.30
2018-07-16T05:02:14.652Z,17.20
2018-07-16T05:04:43.226Z,17.20
2018-07-16T05:07:11.626Z,17.30
2018-07-16T05:09:40.006Z,17.30
2018-07-16T05:12:08.310Z,17.20
2018-07-16T05:14:36.688Z,17.20
2018-07-16T05:17:05.013Z,17.20
2018-07-16T05:19:33.391Z,17.20
2018-07-16T05:22:01.777Z,17.20
2018-07-16T05:24:30.145Z,17.20
2018-07-16T05:26:58.511Z,17.20
2018-07-16T05:29:26.895Z,17.10
2018-07-16T05:31:55.332Z,17.10
2018-07-16T05:34:23.506Z,17.10
2018-07-16T05:36:51.846Z,17.10
2018-07-16T05:39:20.391Z,17.10
2018-07-16T05:41:48.790Z,17.10
2018-07-16T05:44:17.816Z,17.20
2018-07-16T05:46:46.115Z,17.20
2018-07-16T05:49:14.511Z,17.10
2018-07-16T05:51:42.929Z,16.90
2018-07-16T05:54:11.381Z,16.80
2018-07-16T05:56:39.666Z,16.80
2018-07-16T05:59:08.235Z,16.80
2018-07-16T06:01:36.607Z,16.80
2018-07-16T06:04:05.039Z,16.90
2018-07-16T06:06:34.037Z,16.90
2018-07-16T06:09:02.798Z,16.90
2018-07-16T06:11:31.190Z,16.90
2018-07-16T06:13:59.601Z,17.00
2018-07-16T06:16:27.975Z,17.10
2018-07-16T06:18:56.322Z,17.10
2018-07-16T06:21:24.653Z,17.20
2018-07-16T06:23:53.056Z,17.20
2018-07-16T06:26:21.484Z,17.30
2018-07-16T06:28:49.834Z,17.20
2018-07-16T06:31:18.193Z,17.30
2018-07-16T06:33:46.621Z,17.30
2018-07-16T06:36:15.221Z,17.40
2018-07-16T06:38:43.718Z,17.60
2018-07-16T06:41:12.348Z,17.60
2018-07-16T06:43:40.559Z,18.00
2018-07-16T06:46:09.518Z,18.40
2018-07-16T06:48:37.976Z,18.40
2018-07-16T06:51:06.407Z,18.70
2018-07-16T06:53:34.806Z,18.90
2018-07-16T06:56:03.285Z,18.90
2018-07-16T06:58:31.611Z,18.80
2018-07-16T07:00:59.978Z,18.70
2018-07-16T07:03:28.310Z,18.80
2018-07-16T07:05:56.681Z,18.70
2018-07-16T07:08:25.024Z,18.80
2018-07-16T07:10:53.402Z,19.00
2018-07-16T07:13:21.827Z,19.00
2018-07-16T07:15:50.183Z,19.10
2018-07-16T07:18:18.602Z,19.10
2018-07-16T07:20:47.087Z,18.90
2018-07-16T07:23:15.473Z,18.90
2018-07-16T07:25:43.905Z,18.90
2018-07-16T07:28:12.271Z,18.80
2018-07-16T07:30:40.603Z,18.70
2018-07-16T07:33:08.985Z,18.80
2018-07-16T07:35:37.344Z,18.70
2018-07-16T07:38:05.758Z,18.70
2018-07-16T07:40:34.146Z,18.70
2018-07-16T07:43:02.587Z,18.70
2018-07-16T07:45:30.982Z,18.70
2018-07-16T07:47:59.403Z,18.80
2018-07-16T07:50:27.813Z,18.80
2018-07-16T07:52:56.136Z,19.30
2018-07-16T07:55:24.667Z,20.10
2018-07-16T07:57:52.989Z,21.00
2018-07-16T08:00:21.577Z,21.90
2018-07-16T08:02:49.921Z,22.10
2018-07-16T08:05:18.285Z,21.60
2018-07-16T08:07:46.673Z,21.40
2018-07-16T08:10:15.112Z,21.40
2018-07-16T08:12:43.551Z,21.50
2018-07-16T08:15:11.950Z,21.50
2018-07-16T08:17:40.458Z,21.60
2018-07-16T08:20:09.182Z,21.30
2018-07-16T08:22:37.614Z,21.30
2018-07-16T08:25:06.034Z,21.30
2018-07-16T08:27:35.173Z,21.50
2018-07-16T08:30:03.591Z,21.80
2018-07-16T08:32:31.968Z,22.00
2018-07-16T08:35:00.365Z,21.90
2018-07-16T08:37:28.705Z,21.70
2018-07-16T08:39:57.185Z,22.20
2018-07-16T08:42:25.560Z,23.00
2018-07-16T08:44:53.925Z,23.00
2018-07-16T08:47:22.359Z,22.90
2018-07-16T08:49:50.717Z,22.90
2018-07-16T08:52:19.084Z,22.70
2018-07-16T08:54:47.466Z,22.80
2018-07-16T08:57:15.846Z,23.50
2018-07-16T08:59:44.197Z,23.10
2018-07-16T09:02:12.593Z,22.80
2018-07-16T09:04:41.059Z,22.50
2018-07-16T09:07:09.601Z,22.60
2018-07-16T09:09:37.925Z,22.70
2018-07-16T09:12:06.289Z,22.70
2018-07-16T09:14:34.852Z,23.00
2018-07-16T09:17:03.212Z,23.50
2018-07-16T09:19:31.616Z,23.90
2018-07-16T09:22:00.024Z,24.10
2018-07-16T09:24:28.463Z,24.60
2018-07-16T09:26:56.984Z,24.70
2018-07-16T09:29:25.377Z,24.40
2018-07-16T09:31:53.754Z,24.50
2018-07-16T09:34:22.185Z,24.60
2018-07-16T09:36:50.568Z,24.80
2018-07-16T09:39:18.995Z,24.90
2018-07-16T09:41:47.498Z,25.30
2018-07-16T09:44:15.909Z,25.60
2018-07-16T09:46:44.224Z,25.70
2018-07-16T09:49:12.618Z,25.40
2018-07-16T09:51:41.059Z,25.30
2018-07-16T09:54:09.345Z,25.10
2018-07-16T09:56:37.788Z,25.30
2018-07-16T09:59:06.257Z,25.40
2018-07-16T10:01:39.970Z,25.20
2018-07-16T10:04:08.265Z,24.70
2018-07-16T10:06:36.694Z,24.70
2018-07-16T10:09:06.315Z,24.80
2018-07-16T10:11:34.601Z,25.70
2018-07-16T10:14:03.077Z,26.20
2018-07-16T10:16:32.181Z,26.20
2018-07-16T10:19:00.916Z,26.20
2018-07-16T10:21:29.549Z,26.10
2018-07-16T10:23:57.926Z,25.80
2018-07-16T10:26:26.199Z,25.90
2018-07-16T10:28:54.669Z,25.80
2018-07-16T10:31:22.991Z,26.00
2018-07-16T10:33:51.352Z,26.00
2018-07-16T10:36:19.644Z,26.10
2018-07-16T10:38:48.019Z,26.50
2018-07-16T10:41:16.400Z,26.20
2018-07-16T10:43:44.796Z,26.40
2018-07-16T10:46:13.234Z,26.70
2018-07-16T10:48:41.584Z,26.50
2018-07-16T10:51:10.031Z,26.50
2018-07-16T10:53:38.365Z,26.80
2018-07-16T10:56:06.751Z,26.90
2018-07-16T10:58:35.124Z,27.00
2018-07-16T11:01:04.363Z,26.90
2018-07-16T11:03:32.780Z,27.10
2018-07-16T11:06:06.590Z,27.40
2018-07-16T11:08:34.938Z,27.80
2018-07-16T11:11:03.857Z,27.90
2018-07-16T11:13:32.215Z,27.90
2018-07-16T11:16:00.668Z,28.00
2018-07-16T11:18:28.991Z,27.60
2018-07-16T11:20:57.324Z,27.40
2018-07-16T11:23:25.633Z,27.10
2018-07-16T11:25:54.364Z,26.80
2018-07-16T11:28:23.872Z,27.10
2018-07-16T11:30:53.110Z,26.90
2018-07-16T11:33:21.860Z,26.90
2018-07-16T11:35:50.319Z,27.00
2018-07-16T11:38:18.676Z,27.10
2018-07-16T11:43:15.325Z,27.30
2018-07-16T11:45:43.863Z,27.80
2018-07-16T11:48:12.280Z,27.70
2018-07-16T11:50:40.627Z,27.50
2018-07-16T11:53:09.180Z,27.00
2018-07-16T11:55:37.549Z,27.00
2018-07-16T11:58:05.951Z,27.10
2018-07-16T12:00:34.341Z,27.30
2018-07-16T12:03:02.759Z,27.50
2018-07-16T12:05:31.033Z,27.30
2018-07-16T12:07:59.444Z,27.40
2018-07-16T12:10:27.782Z,27.30
2018-07-16T12:12:56.172Z,27.30
2018-07-16T12:15:24.713Z,27.10
2018-07-16T12:17:53.069Z,27.10
2018-07-16T12:20:21.414Z,26.90
2018-07-16T12:22:49.786Z,26.20
2018-07-16T12:25:18.070Z,26.50
2018-07-16T12:27:46.475Z,26.90
2018-07-16T12:30:14.803Z,27.00
2018-07-16T12:32:43.230Z,27.20
2018-07-16T12:35:11.491Z,27.30
2018-07-16T12:37:39.963Z,27.10
2018-07-16T12:40:08.335Z,27.30
2018-07-16T12:42:36.695Z,27.20
2018-07-16T12:45:05.272Z,27.20
2018-07-16T12:47:33.662Z,27.20
2018-07-16T12:50:02.069Z,27.20
2018-07-16T12:52:30.630Z,27.00
2018-07-16T12:54:58.999Z,26.70
2018-07-16T12:57:27.365Z,26.60
2018-07-16T12:59:56.785Z,26.70
2018-07-16T13:02:25.173Z,26.80
2018-07-16T13:04:53.580Z,26.50
2018-07-16T13:07:21.983Z,26.50
2018-07-16T13:09:50.277Z,26.50
2018-07-16T13:12:18.721Z,26.50
2018-07-16T13:14:47.176Z,26.40
2018-07-16T13:17:15.630Z,26.40
2018-07-16T13:19:43.995Z,26.20
2018-07-16T13:22:12.383Z,26.20
2018-07-16T13:24:40.820Z,25.90
2018-07-16T13:27:09.353Z,25.90
2018-07-16T13:29:37.840Z,26.00
2018-07-16T13:32:06.388Z,26.10
2018-07-16T13:34:34.781Z,26.40
2018-07-16T13:37:03.163Z,26.40
2018-07-16T13:39:31.576Z,26.30
2018-07-16T13:41:59.999Z,26.30
2018-07-16T13:44:28.376Z,26.10
2018-07-16T13:46:56.785Z,25.90
2018-07-16T13:49:25.123Z,25.80
2018-07-16T13:51:53.509Z,25.70
2018-07-16T13:54:21.857Z,25.90
2018-07-16T13:56:50.265Z,25.80
2018-07-16T13:59:18.672Z,25.60
2018-07-16T14:01:47.138Z,25.30
2018-07-16T14:04:15.598Z,25.40
2018-07-16T14:06:44.021Z,25.40
2018-07-16T14:09:12.345Z,25.60
2018-07-16T14:11:40.710Z,25.20
2018-07-16T14:14:09.082Z,25.40
2018-07-16T14:16:37.450Z,25.50
2018-07-16T14:19:05.875Z,25.70
2018-07-16T14:21:34.472Z,25.50
2018-07-16T14:24:03.397Z,25.30
2018-07-16T14:26:31.755Z,25.30
2018-07-16T14:29:00.159Z,25.40
2018-07-16T14:31:28.543Z,25.30
2018-07-16T14:33:57.002Z,25.30
2018-07-16T14:36:25.481Z,25.30
2018-07-16T14:38:53.795Z,25.00
2018-07-16T14:41:22.238Z,24.90
2018-07-16T14:43:50.648Z,24.90
2018-07-16T14:46:19.021Z,24.90
2018-07-16T14:48:47.442Z,24.90
2018-07-16T14:51:16.093Z,25.00
2018-07-16T14:53:44.478Z,24.90
2018-07-16T14:56:12.947Z,24.90
2018-07-16T14:58:41.441Z,24.60
2018-07-16T15:01:09.843Z,24.50
2018-07-16T15:03:38.232Z,24.40
2018-07-16T15:06:06.676Z,24.40
2018-07-16T15:11:03.183Z,24.20
2018-07-16T15:13:31.605Z,23.80
2018-07-16T15:15:59.963Z,22.90
2018-07-16T15:18:28.646Z,22.20
2018-07-16T15:20:57.289Z,21.10
2018-07-16T15:23:27.217Z,20.60
2018-07-16T15:25:55.555Z,20.20
2018-07-16T15:28:23.939Z,20.20
2018-07-16T15:30:52.295Z,20.40
2018-07-16T15:33:20.720Z,20.40
2018-07-16T15:35:49.145Z,20.40
2018-07-16T15:38:17.557Z,20.20
2018-07-16T15:40:46.087Z,20.10
2018-07-16T15:43:14.417Z,20.00
2018-07-16T15:45:43.431Z,19.90
2018-07-16T15:48:12.598Z,19.90
2018-07-16T15:50:40.890Z,20.00
2018-07-16T15:53:09.371Z,20.00
2018-07-16T15:55:37.778Z,20.10
2018-07-16T15:58:06.365Z,20.20
2018-07-16T16:00:34.727Z,20.20
2018-07-16T16:03:03.183Z,20.40
2018-07-16T16:05:31.599Z,20.50
2018-07-16T16:08:00.042Z,20.70
2018-07-16T16:10:28.438Z,21.00
2018-07-16T16:12:56.910Z,21.10
2018-07-16T16:15:25.543Z,21.30
2018-07-16T16:17:53.925Z,21.30
2018-07-16T16:20:22.415Z,21.30
2018-07-16T16:22:50.847Z,21.20
2018-07-16T16:25:19.257Z,21.10
2018-07-16T16:27:48.304Z,21.20
2018-07-16T16:30:16.726Z,21.10
2018-07-16T16:32:45.162Z,21.30
2018-07-16T16:35:13.597Z,21.30
2018-07-16T16:37:41.984Z,21.30
2018-07-16T16:40:10.358Z,21.40
2018-07-16T16:42:39.195Z,21.40
2018-07-16T16:45:07.640Z,21.40
2018-07-16T16:47:36.005Z,21.30
2018-07-16T16:50:04.784Z,21.30
2018-07-16T16:52:33.142Z,21.40
2018-07-16T16:55:01.564Z,21.40
2018-07-16T16:57:29.944Z,21.50
2018-07-16T16:59:58.322Z,21.50
2018-07-16T17:02:26.839Z,21.50
2018-07-16T17:04:55.154Z,21.40
2018-07-16T17:07:23.689Z,21.40
2018-07-16T17:12:20.175Z,21.30
2018-07-16T17:14:48.675Z,21.30
2018-07-16T17:17:17.026Z,21.30
2018-07-16T17:19:45.474Z,21.40
2018-07-16T17:22:13.843Z,21.30
2018-07-16T17:24:42.246Z,21.30
2018-07-16T17:27:10.524Z,21.40
2018-07-16T17:29:38.952Z,21.40
2018-07-16T17:32:07.357Z,21.40
2018-07-16T17:34:35.707Z,21.40
2018-07-16T17:37:04.455Z,21.30
2018-07-16T17:39:32.853Z,21.50
2018-07-16T17:42:01.320Z,21.60
2018-07-16T17:44:29.897Z,21.60
2018-07-16T17:46:58.343Z,21.50
2018-07-16T17:49:26.742Z,21.50
2018-07-16T17:51:55.146Z,21.40
2018-07-16T17:54:23.559Z,21.50
2018-07-16T17:56:51.951Z,21.60
2018-07-16T17:59:20.322Z,21.60
2018-07-16T18:01:48.706Z,21.30
2018-07-16T18:04:18.068Z,21.20
2018-07-16T18:06:46.449Z,21.20
2018-07-16T18:09:14.825Z,21.20
2018-07-16T18:11:43.304Z,21.20
2018-07-16T18:14:11.721Z,21.10
2018-07-16T18:16:40.097Z,21.20
2018-07-16T18:19:08.481Z,21.20
2018-07-16T18:21:37.474Z,21.10
2018-07-16T18:24:06.273Z,21.00
2018-07-16T18:26:35.174Z,20.90
2018-07-16T18:29:03.661Z,20.80
2018-07-16T18:31:32.024Z,20.90
2018-07-16T18:34:00.422Z,20.80
2018-07-16T18:36:28.956Z,20.80
2018-07-16T18:38:57.337Z,20.70
2018-07-16T18:41:25.758Z,20.60
2018-07-16T18:43:54.185Z,20.50
2018-07-16T18:46:22.652Z,20.50
2018-07-16T18:48:51.033Z,20.40
2018-07-16T18:51:19.368Z,20.40
2018-07-16T18:53:47.728Z,20.30
2018-07-16T18:56:16.261Z,20.20
2018-07-16T18:58:44.675Z,20.20
2018-07-16T19:01:13.121Z,20.10
2018-07-16T19:03:41.854Z,20.20
2018-07-16T19:06:10.518Z,20.10
2018-07-16T19:08:38.874Z,20.00
2018-07-16T19:11:07.405Z,19.90
2018-07-16T19:13:35.881Z,19.80
2018-07-16T19:16:04.293Z,19.80
2018-07-16T19:18:34.059Z,19.80
2018-07-16T19:21:03.135Z,19.80
2018-07-16T19:23:31.537Z,19.70
2018-07-16T19:25:59.974Z,19.70
2018-07-16T19:28:28.609Z,19.60
2018-07-16T19:30:56.912Z,19.60
2018-07-16T19:33:25.274Z,19.60
2018-07-16T19:35:53.714Z,19.50
2018-07-16T19:38:22.112Z,19.50
2018-07-16T19:40:50.527Z,19.60
2018-07-16T19:43:18.987Z,19.50
2018-07-16T19:45:47.511Z,19.60
2018-07-16T19:48:15.885Z,19.50
2018-07-16T19:50:44.348Z,19.50
2018-07-16T19:53:12.687Z,19.50
2018-07-16T19:55:41.063Z,19.50
2018-07-16T19:58:09.566Z,19.50
2018-07-16T20:00:37.801Z,19.40
2018-07-16T20:03:06.887Z,19.30
2018-07-16T20:05:35.618Z,19.40
2018-07-16T20:08:04.019Z,19.30
2018-07-16T20:10:32.651Z,19.20
2018-07-16T20:13:01.078Z,19.20
2018-07-16T20:15:29.560Z,19.10
2018-07-16T20:17:57.880Z,19.10
2018-07-16T20:20:26.283Z,19.00
2018-07-16T20:22:54.652Z,19.10
2018-07-16T20:25:23.042Z,19.10
2018-07-16T20:27:51.412Z,19.10
2018-07-16T20:30:19.809Z,19.00
2018-07-16T20:32:48.346Z,19.00
2018-07-16T20:35:16.762Z,19.00
2018-07-16T20:37:45.301Z,19.00
2018-07-16T20:40:13.755Z,18.90
2018-07-16T20:42:42.131Z,18.90
2018-07-16T20:45:10.533Z,18.80
2018-07-16T20:47:38.992Z,19.00
2018-07-16T20:50:07.377Z,19.00
2018-07-16T20:52:35.714Z,18.90
2018-07-16T20:55:04.225Z,18.90
2018-07-16T20:57:32.607Z,18.80
2018-07-16T21:00:00.956Z,18.70
2018-07-16T21:02:29.580Z,18.80
2018-07-16T21:04:58.118Z,18.80
2018-07-16T21:07:26.481Z,18.80
2018-07-16T21:09:55.896Z,18.70
2018-07-16T21:12:24.335Z,18.70
2018-07-16T21:14:52.783Z,18.60
2018-07-16T21:17:21.351Z,18.60
2018-07-16T21:19:49.827Z,18.60
2018-07-16T21:22:18.241Z,18.50
2018-07-16T21:24:46.661Z,18.40
2018-07-16T21:27:15.070Z,18.50
2018-07-16T21:29:43.426Z,18.30
2018-07-16T21:32:11.815Z,18.30
2018-07-16T21:34:40.252Z,18.40
2018-07-16T21:37:08.583Z,18.30
2018-07-16T21:39:36.993Z,18.30
2018-07-16T21:42:06.027Z,18.20
2018-07-16T21:44:34.478Z,18.20
2018-07-16T21:47:02.846Z,18.30
2018-07-16T21:49:31.307Z,18.30
2018-07-16T21:51:59.814Z,18.20
2018-07-16T21:54:28.313Z,18.20
2018-07-16T21:56:56.851Z,18.20
2018-07-16T21:59:25.282Z,18.20
2018-07-16T22:01:53.711Z,18.20
2018-07-16T22:04:22.253Z,18.20
2018-07-16T22:06:50.577Z,18.10
2018-07-16T22:09:19.041Z,18.10
2018-07-16T22:11:47.524Z,18.00
2018-07-16T22:14:15.998Z,18.00
2018-07-16T22:16:44.401Z,17.90
2018-07-16T22:19:12.819Z,18.00
2018-07-16T22:21:41.231Z,18.00
2018-07-16T22:24:09.592Z,17.90
2018-07-16T22:26:38.040Z,17.90
2018-07-16T22:29:06.629Z,17.80
2018-07-16T22:31:35.074Z,17.80
2018-07-16T22:34:03.626Z,17.80
2018-07-16T22:36:31.983Z,17.90
2018-07-16T22:39:00.495Z,17.80
2018-07-16T22:41:28.938Z,17.80
2018-07-16T22:43:57.392Z,17.70
2018-07-16T22:46:25.823Z,17.70
2018-07-16T22:48:54.235Z,17.70
2018-07-16T22:51:22.716Z,17.60
2018-07-16T22:53:51.138Z,17.60
2018-07-16T22:56:19.570Z,17.60
2018-07-16T22:58:47.989Z,17.60
2018-07-16T23:01:16.459Z,17.70
2018-07-16T23:03:44.789Z,17.60
2018-07-16T23:06:13.159Z,17.60
2018-07-16T23:08:41.489Z,17.50
2018-07-16T23:11:09.896Z,17.50
2018-07-16T23:13:38.300Z,17.40
2018-07-16T23:16:06.668Z,17.40
2018-07-16T23:18:35.097Z,17.40
2018-07-16T23:21:03.508Z,17.40
2018-07-16T23:23:31.893Z,17.30
2018-07-16T23:26:00.384Z,17.30
2018-07-16T23:28:28.857Z,17.30
2018-07-16T23:30:57.209Z,17.30
2018-07-16T23:33:25.585Z,17.30
2018-07-16T23:35:54.065Z,17.20
2018-07-16T23:38:22.487Z,17.20
2018-07-16T23:40:50.883Z,17.20
2018-07-16T23:43:19.287Z,17.20
2018-07-16T23:45:47.685Z,17.00
2018-07-16T23:48:16.075Z,17.00
2018-07-16T23:50:44.511Z,17.10
2018-07-16T23:53:13.005Z,17.10
2018-07-16T23:55:41.489Z,17.00
2018-07-16T23:58:09.777Z,17.00
